Terminal Aerodrome Forecast
Issued by NWS Sioux Falls, SD

Home | Current Version | Previous Version | Text Only | Print | Product List | Glossary Off
Versions: 1 2 3 4 5 6 7 8 9 10 11 12

000
FTUS43 KFSD 202323
TAFFSD
TAF
KFSD 202323Z 2100/2124 33012KT P6SM SCT050 SCT100
     FM210200 32005KT P6SM SKC
     FM211100 VRB04KT 5SM BR FEW002
     FM211300 26004KT P6SM SKC
     FM212200 19005KT P6SM SKC=

USA.gov is the U.S. government's official web portal to all federal, state and local government web resources and services.